createdAt,value
2019-06-20T00:00:43.119Z,23.52
2019-06-20T00:01:43.144Z,23.59
2019-06-20T00:02:43.095Z,23.54
2019-06-20T00:03:43.082Z,23.50
2019-06-20T00:04:43.088Z,23.59
2019-06-20T00:05:43.058Z,23.50
2019-06-20T00:06:43.065Z,23.59
2019-06-20T00:07:43.044Z,23.59
2019-06-20T00:08:43.031Z,23.60
2019-06-20T00:09:43.026Z,23.64
2019-06-20T00:10:43.015Z,23.56
2019-06-20T00:11:43.103Z,23.74
2019-06-20T00:12:42.992Z,23.74
2019-06-20T00:13:42.979Z,23.64
2019-06-20T00:14:42.960Z,23.67
2019-06-20T00:15:42.972Z,23.74
2019-06-20T00:16:42.964Z,23.68
2019-06-20T00:17:42.941Z,23.71
2019-06-20T00:18:42.923Z,23.77
2019-06-20T00:19:42.917Z,23.74
2019-06-20T00:20:42.899Z,23.74
2019-06-20T00:21:42.915Z,23.77
2019-06-20T00:22:42.879Z,23.72
2019-06-20T00:23:42.869Z,23.69
2019-06-20T00:24:42.863Z,23.54
2019-06-20T00:25:42.853Z,23.37
2019-06-20T00:26:42.864Z,23.38
2019-06-20T00:27:42.827Z,23.29
2019-06-20T00:28:42.818Z,23.15
2019-06-20T00:29:42.813Z,23.15
2019-06-20T00:30:42.811Z,22.97
2019-06-20T00:31:42.784Z,22.91
2019-06-20T00:32:42.786Z,22.85
2019-06-20T00:33:42.767Z,22.63
2019-06-20T00:34:42.750Z,22.41
2019-06-20T00:35:42.746Z,22.33
2019-06-20T00:36:42.745Z,22.21
2019-06-20T00:37:42.727Z,22.14
2019-06-20T00:38:42.711Z,22.11
2019-06-20T00:39:42.704Z,22.05
2019-06-20T00:40:42.698Z,21.96
2019-06-20T00:41:42.680Z,21.98
2019-06-20T00:42:42.678Z,21.98
2019-06-20T00:43:42.649Z,22.04
2019-06-20T00:44:42.645Z,22.08
2019-06-20T00:45:42.632Z,22.08
2019-06-20T00:46:42.636Z,22.08
2019-06-20T00:47:42.624Z,22.05
2019-06-20T00:48:42.604Z,22.02
2019-06-20T00:49:42.586Z,22.01
2019-06-20T00:50:42.600Z,22.05
2019-06-20T00:51:42.568Z,22.08
2019-06-20T00:52:42.586Z,22.02
2019-06-20T00:53:42.572Z,21.98
2019-06-20T00:54:42.538Z,21.83
2019-06-20T00:55:42.525Z,21.83
2019-06-20T00:56:42.539Z,21.83
2019-06-20T00:57:42.532Z,21.71
2019-06-20T00:58:42.487Z,21.77
2019-06-20T00:59:42.490Z,21.71
2019-06-20T01:00:42.507Z,21.67
2019-06-20T01:01:42.469Z,21.73
2019-06-20T01:02:42.458Z,21.66
2019-06-20T01:03:42.454Z,21.71
2019-06-20T01:04:42.432Z,21.67
2019-06-20T01:05:42.411Z,21.64
2019-06-20T01:06:42.410Z,21.67
2019-06-20T01:07:42.401Z,21.75
2019-06-20T01:08:42.475Z,21.83
2019-06-20T01:09:42.365Z,21.73
2019-06-20T01:10:42.366Z,21.81
2019-06-20T01:11:42.374Z,21.75
2019-06-20T01:12:42.343Z,21.64
2019-06-20T01:13:42.337Z,21.63
2019-06-20T01:14:42.359Z,21.56
2019-06-20T01:15:42.309Z,21.64
2019-06-20T01:16:42.301Z,21.66
2019-06-20T01:17:42.288Z,21.83
2019-06-20T01:18:42.275Z,21.99
2019-06-20T01:19:42.294Z,22.06
2019-06-20T01:20:42.280Z,22.21
2019-06-20T01:21:42.249Z,22.24
2019-06-20T01:22:42.237Z,22.17
2019-06-20T01:23:42.228Z,22.17
2019-06-20T01:24:42.211Z,22.17
2019-06-20T01:25:42.212Z,22.21
2019-06-20T01:26:42.194Z,22.31
2019-06-20T01:27:42.178Z,22.30
2019-06-20T01:28:42.164Z,22.35
2019-06-20T01:29:42.156Z,22.31
2019-06-20T01:30:42.160Z,22.36
2019-06-20T01:31:42.167Z,22.38
2019-06-20T01:32:42.118Z,22.30
2019-06-20T01:33:42.118Z,22.35
2019-06-20T01:34:42.112Z,22.38
2019-06-20T01:35:42.101Z,22.36
2019-06-20T01:36:42.087Z,22.30
2019-06-20T01:37:42.067Z,22.33
2019-06-20T01:38:42.092Z,22.27
2019-06-20T01:39:42.056Z,22.30
2019-06-20T01:40:42.063Z,22.21
2019-06-20T01:41:42.020Z,22.21
2019-06-20T01:42:42.022Z,22.17
2019-06-20T01:43:50.476Z,22.12
2019-06-20T01:44:43.000Z,22.12
2019-06-20T01:45:42.001Z,22.09
2019-06-20T01:46:42.002Z,22.08
2019-06-20T01:47:41.962Z,22.06
2019-06-20T01:48:41.953Z,21.99
2019-06-20T01:49:41.942Z,21.91
2019-06-20T01:50:41.934Z,21.93
2019-06-20T01:51:41.950Z,21.81
2019-06-20T01:52:41.902Z,21.71
2019-06-20T01:53:41.900Z,21.63
2019-06-20T01:54:41.894Z,21.66
2019-06-20T01:55:41.868Z,21.58
2019-06-20T01:56:41.876Z,21.61
2019-06-20T01:57:41.857Z,21.59
2019-06-20T01:58:41.847Z,21.48
2019-06-20T01:59:41.858Z,21.43
2019-06-20T02:00:41.826Z,21.46
2019-06-20T02:01:41.823Z,21.40
2019-06-20T02:02:41.810Z,21.38
2019-06-20T02:03:41.783Z,21.31
2019-06-20T02:04:41.776Z,21.28
2019-06-20T02:05:41.783Z,21.34
2019-06-20T02:06:41.768Z,21.30
2019-06-20T02:07:41.738Z,21.21
2019-06-20T02:08:41.726Z,21.22
2019-06-20T02:09:41.713Z,21.24
2019-06-20T02:10:41.711Z,21.30
2019-06-20T02:11:41.720Z,21.26
2019-06-20T02:12:41.686Z,21.12
2019-06-20T02:13:41.671Z,21.18
2019-06-20T02:14:41.655Z,21.16
2019-06-20T02:15:41.652Z,21.19
2019-06-20T02:16:41.652Z,21.15
2019-06-20T02:17:41.625Z,21.12
2019-06-20T02:18:41.632Z,21.15
2019-06-20T02:19:41.619Z,21.12
2019-06-20T02:20:41.606Z,21.08
2019-06-20T02:21:41.601Z,21.01
2019-06-20T02:22:41.577Z,20.98
2019-06-20T02:23:41.561Z,21.03
2019-06-20T02:24:41.573Z,20.88
2019-06-20T02:25:41.547Z,20.97
2019-06-20T02:26:41.551Z,20.94
2019-06-20T02:27:41.519Z,20.93
2019-06-20T02:28:41.526Z,20.90
2019-06-20T02:29:41.494Z,21.01
2019-06-20T02:30:41.496Z,20.91
2019-06-20T02:31:41.491Z,20.94
2019-06-20T02:32:41.467Z,20.88
2019-06-20T02:33:41.472Z,20.83
2019-06-20T02:34:41.448Z,20.81
2019-06-20T02:35:41.443Z,20.82
2019-06-20T02:36:41.418Z,20.69
2019-06-20T02:37:41.422Z,20.66
2019-06-20T02:38:41.408Z,20.66
2019-06-20T02:39:41.387Z,20.61
2019-06-20T02:40:41.385Z,20.61
2019-06-20T02:41:41.371Z,20.61
2019-06-20T02:42:41.359Z,20.63
2019-06-20T02:43:41.368Z,20.61
2019-06-20T02:44:41.344Z,20.57
2019-06-20T02:45:41.323Z,20.57
2019-06-20T02:46:41.323Z,20.53
2019-06-20T02:47:41.309Z,20.54
2019-06-20T02:48:41.301Z,20.48
2019-06-20T02:49:41.295Z,20.50
2019-06-20T02:50:41.267Z,20.51
2019-06-20T02:51:41.266Z,20.42
2019-06-20T02:52:41.250Z,20.46
2019-06-20T02:53:41.254Z,20.42
2019-06-20T02:54:41.246Z,20.27
2019-06-20T02:55:41.216Z,20.33
2019-06-20T02:56:41.209Z,20.33
2019-06-20T02:57:41.193Z,20.33
2019-06-20T02:58:41.200Z,20.35
2019-06-20T02:59:41.167Z,20.31
2019-06-20T03:00:41.162Z,20.25
2019-06-20T03:01:41.165Z,20.25
2019-06-20T03:02:41.163Z,20.26
2019-06-20T03:03:41.126Z,20.27
2019-06-20T03:04:41.133Z,20.20
2019-06-20T03:05:41.104Z,20.16
2019-06-20T03:06:41.101Z,20.13
2019-06-20T03:07:41.087Z,20.19
2019-06-20T03:08:41.085Z,20.20
2019-06-20T03:09:41.069Z,20.17
2019-06-20T03:10:41.105Z,20.16
2019-06-20T03:11:41.039Z,20.16
2019-06-20T03:12:41.035Z,20.13
2019-06-20T03:13:41.061Z,20.12
2019-06-20T03:14:45.439Z,20.17
2019-06-20T03:15:41.007Z,20.12
2019-06-20T03:16:40.991Z,20.19
2019-06-20T03:17:40.985Z,20.20
2019-06-20T03:18:40.959Z,20.15
2019-06-20T03:19:40.964Z,20.27
2019-06-20T03:20:40.948Z,20.27
2019-06-20T03:21:40.927Z,20.26
2019-06-20T03:22:40.920Z,20.31
2019-06-20T03:23:40.922Z,20.31
2019-06-20T03:24:40.897Z,20.33
2019-06-20T03:25:40.891Z,20.33
2019-06-20T03:26:40.879Z,20.37
2019-06-20T03:27:40.886Z,20.31
2019-06-20T03:28:40.857Z,20.44
2019-06-20T03:29:40.858Z,20.50
2019-06-20T03:30:40.826Z,20.50
2019-06-20T03:31:40.826Z,20.53
2019-06-20T03:32:40.824Z,20.58
2019-06-20T03:33:40.801Z,20.51
2019-06-20T03:34:40.800Z,20.56
2019-06-20T03:35:40.773Z,20.42
2019-06-20T03:36:40.761Z,20.42
2019-06-20T03:37:40.771Z,20.42
2019-06-20T03:38:40.756Z,20.50
2019-06-20T03:39:40.729Z,20.50
2019-06-20T03:40:40.740Z,20.48
2019-06-20T03:41:40.723Z,20.53
2019-06-20T03:42:40.709Z,20.53
2019-06-20T03:43:40.693Z,20.57
2019-06-20T03:44:40.682Z,20.54
2019-06-20T03:45:40.671Z,20.58
2019-06-20T03:46:40.670Z,20.48
2019-06-20T03:47:40.652Z,20.48
2019-06-20T03:48:40.641Z,20.50
2019-06-20T03:49:40.621Z,20.42
2019-06-20T03:50:40.614Z,20.44
2019-06-20T03:51:40.626Z,20.44
2019-06-20T03:52:40.596Z,20.44
2019-06-20T03:53:40.585Z,20.41
2019-06-20T03:54:40.565Z,20.42
2019-06-20T03:55:40.557Z,20.41
2019-06-20T03:56:40.578Z,20.42
2019-06-20T03:57:40.547Z,20.41
2019-06-20T03:58:40.526Z,20.38
2019-06-20T03:59:40.519Z,20.27
2019-06-20T04:00:40.507Z,20.37
2019-06-20T04:01:40.510Z,20.40
2019-06-20T04:02:40.479Z,20.33
2019-06-20T04:03:40.509Z,20.31
2019-06-20T04:04:40.478Z,20.42
2019-06-20T04:05:40.445Z,20.41
2019-06-20T04:06:40.453Z,20.44
2019-06-20T04:07:40.441Z,20.37
2019-06-20T04:08:40.433Z,20.53
2019-06-20T04:09:40.438Z,20.51
2019-06-20T04:10:40.398Z,20.54
2019-06-20T04:11:40.414Z,20.64
2019-06-20T04:12:40.377Z,20.73
2019-06-20T04:13:40.366Z,20.76
2019-06-20T04:14:40.361Z,20.85
2019-06-20T04:15:40.343Z,20.98
2019-06-20T04:16:40.331Z,21.08
2019-06-20T04:17:40.335Z,21.06
2019-06-20T04:18:40.310Z,21.09
2019-06-20T04:19:40.299Z,21.13
2019-06-20T04:20:40.305Z,21.11
2019-06-20T04:21:40.304Z,21.13
2019-06-20T04:22:40.263Z,21.11
2019-06-20T04:23:40.266Z,21.13
2019-06-20T04:24:40.249Z,21.13
2019-06-20T04:25:40.234Z,21.13
2019-06-20T04:26:40.220Z,21.22
2019-06-20T04:27:40.221Z,21.18
2019-06-20T04:28:40.194Z,21.21
2019-06-20T04:29:40.195Z,21.28
2019-06-20T04:30:40.183Z,21.24
2019-06-20T04:31:40.177Z,21.22
2019-06-20T04:32:40.175Z,21.26
2019-06-20T04:33:40.143Z,21.30
2019-06-20T04:34:40.129Z,21.37
2019-06-20T04:35:40.130Z,21.40
2019-06-20T04:36:40.111Z,21.53
2019-06-20T04:37:40.127Z,21.52
2019-06-20T04:38:40.111Z,21.55
2019-06-20T04:39:40.076Z,21.64
2019-06-20T04:40:40.066Z,21.61
2019-06-20T04:41:40.062Z,21.67
2019-06-20T04:42:40.075Z,21.63
2019-06-20T04:43:40.049Z,21.74
2019-06-20T04:44:40.029Z,21.77
2019-06-20T04:45:40.015Z,21.70
2019-06-20T04:46:40.011Z,21.77
2019-06-20T04:47:39.989Z,21.85
2019-06-20T04:48:39.993Z,21.75
2019-06-20T04:49:39.982Z,21.98
2019-06-20T04:50:39.960Z,21.96
2019-06-20T04:51:39.954Z,22.11
2019-06-20T04:52:39.957Z,22.20
2019-06-20T04:53:39.936Z,22.33
2019-06-20T04:54:39.930Z,22.48
2019-06-20T04:55:39.905Z,22.57
2019-06-20T04:56:39.902Z,22.60
2019-06-20T04:57:39.888Z,22.59
2019-06-20T04:58:39.880Z,22.70
2019-06-20T04:59:39.876Z,22.84
2019-06-20T05:00:39.851Z,22.86
2019-06-20T05:01:39.858Z,22.81
2019-06-20T05:02:39.904Z,22.85
2019-06-20T05:03:39.830Z,22.99
2019-06-20T05:04:39.826Z,22.94
2019-06-20T05:05:39.797Z,23.09
2019-06-20T05:06:39.806Z,23.18
2019-06-20T05:07:39.780Z,23.22
2019-06-20T05:08:39.769Z,23.22
2019-06-20T05:09:39.752Z,23.32
2019-06-20T05:10:39.760Z,23.25
2019-06-20T05:11:39.749Z,23.35
2019-06-20T05:12:39.730Z,23.49
2019-06-20T05:13:39.717Z,23.52
2019-06-20T05:14:39.702Z,23.67
2019-06-20T05:15:52.007Z,23.74
2019-06-20T05:16:40.683Z,23.78
2019-06-20T05:17:39.715Z,23.67
2019-06-20T05:18:39.669Z,23.49
2019-06-20T05:19:39.666Z,23.44
2019-06-20T05:20:39.642Z,23.47
2019-06-20T05:21:39.632Z,23.45
2019-06-20T05:22:39.638Z,23.54
2019-06-20T05:23:39.609Z,23.57
2019-06-20T05:24:39.599Z,23.81
2019-06-20T05:25:39.708Z,23.93
2019-06-20T05:26:39.572Z,24.05
2019-06-20T05:27:39.573Z,24.12
2019-06-20T05:28:39.555Z,24.16
2019-06-20T05:29:39.554Z,24.27
2019-06-20T05:30:39.526Z,24.37
2019-06-20T05:31:39.536Z,24.33
2019-06-20T05:32:39.515Z,24.42
2019-06-20T05:33:39.493Z,24.46
2019-06-20T05:34:39.490Z,24.49
2019-06-20T05:35:39.505Z,24.44
2019-06-20T05:36:39.475Z,24.52
2019-06-20T05:37:39.485Z,24.55
2019-06-20T05:38:39.446Z,24.45
2019-06-20T05:39:39.437Z,24.26
2019-06-20T05:40:39.427Z,24.08
2019-06-20T05:41:39.413Z,23.96
2019-06-20T05:42:39.412Z,23.81
2019-06-20T05:43:39.393Z,23.49
2019-06-20T05:44:39.384Z,23.31
2019-06-20T05:45:39.363Z,23.26
2019-06-20T05:46:39.391Z,23.09
2019-06-20T05:47:39.359Z,23.11
2019-06-20T05:48:39.334Z,23.07
2019-06-20T05:49:39.325Z,22.97
2019-06-20T05:50:39.318Z,23.00
2019-06-20T05:51:39.907Z,23.01
2019-06-20T05:52:39.313Z,22.88
2019-06-20T05:53:39.280Z,22.93
2019-06-20T05:54:39.834Z,23.01
2019-06-20T05:55:39.297Z,22.97
2019-06-20T05:56:39.255Z,23.06
2019-06-20T05:57:40.084Z,23.16
2019-06-20T05:58:39.245Z,23.22
2019-06-20T05:59:39.239Z,23.26
2019-06-20T06:00:39.215Z,23.32
2019-06-20T06:01:39.200Z,23.35
2019-06-20T06:02:40.264Z,23.45
2019-06-20T06:03:39.192Z,23.60
2019-06-20T06:04:39.168Z,23.62
2019-06-20T06:05:39.158Z,23.79
2019-06-20T06:06:39.140Z,23.81
2019-06-20T06:07:39.139Z,23.82
2019-06-20T06:08:39.166Z,23.77
2019-06-20T06:09:39.113Z,23.72
2019-06-20T06:10:39.096Z,23.60
2019-06-20T06:11:39.101Z,23.45
2019-06-20T06:12:39.094Z,23.50
2019-06-20T06:13:39.067Z,23.31
2019-06-20T06:14:39.081Z,23.16
2019-06-20T06:15:39.045Z,22.89
2019-06-20T06:16:39.034Z,22.86
2019-06-20T06:17:39.041Z,22.69
2019-06-20T06:18:39.017Z,22.67
2019-06-20T06:19:39.040Z,22.49
2019-06-20T06:20:38.992Z,22.42
2019-06-20T06:21:38.987Z,22.31
2019-06-20T06:22:38.967Z,22.19
2019-06-20T06:23:38.959Z,22.14
2019-06-20T06:24:38.977Z,21.99
2019-06-20T06:25:38.947Z,21.83
2019-06-20T06:26:38.928Z,21.68
2019-06-20T06:27:38.920Z,21.59
2019-06-20T06:28:38.906Z,21.31
2019-06-20T06:29:38.903Z,21.21
2019-06-20T06:30:38.906Z,21.19
2019-06-20T06:31:38.878Z,21.06
2019-06-20T06:32:40.447Z,20.96
2019-06-20T06:33:38.851Z,20.81
2019-06-20T06:34:38.847Z,20.66
2019-06-20T06:35:38.846Z,20.61
2019-06-20T06:36:38.827Z,20.38
2019-06-20T06:37:38.833Z,20.33
2019-06-20T06:38:38.806Z,20.23
2019-06-20T06:39:38.792Z,20.00
2019-06-20T06:40:38.781Z,19.94
2019-06-20T06:41:38.790Z,19.86
2019-06-20T06:42:38.763Z,20.01
2019-06-20T06:43:42.015Z,19.95
2019-06-20T06:44:38.737Z,20.05
2019-06-20T06:45:38.731Z,20.10
2019-06-20T06:46:44.896Z,20.13
2019-06-20T06:47:39.737Z,20.31
2019-06-20T06:48:38.697Z,20.46
2019-06-20T06:49:38.680Z,20.41
2019-06-20T06:50:38.668Z,20.53
2019-06-20T06:51:38.655Z,20.60
2019-06-20T06:52:38.656Z,20.61
2019-06-20T06:53:38.638Z,20.56
2019-06-20T06:54:38.630Z,20.53
2019-06-20T06:55:38.636Z,20.42
2019-06-20T06:56:38.625Z,20.42
2019-06-20T06:57:38.657Z,20.44
2019-06-20T06:58:38.584Z,20.31
2019-06-20T06:59:38.579Z,20.40
2019-06-20T07:00:38.561Z,20.41
2019-06-20T07:01:38.561Z,20.46
2019-06-20T07:02:39.191Z,20.40
2019-06-20T07:03:38.556Z,20.54
2019-06-20T07:04:38.523Z,20.60
2019-06-20T07:05:38.514Z,20.76
2019-06-20T07:06:38.507Z,20.85
2019-06-20T07:07:38.490Z,20.97
2019-06-20T07:08:38.503Z,21.26
2019-06-20T07:09:38.466Z,21.45
2019-06-20T07:10:38.463Z,21.49
2019-06-20T07:11:38.517Z,21.70
2019-06-20T07:12:38.498Z,21.66
2019-06-20T07:13:38.450Z,21.85
2019-06-20T07:14:41.776Z,22.17
2019-06-20T07:15:38.403Z,22.23
2019-06-20T07:16:38.395Z,22.31
2019-06-20T07:17:38.377Z,22.35
2019-06-20T07:18:38.399Z,22.30
2019-06-20T07:19:38.587Z,22.26
2019-06-20T07:20:38.342Z,22.21
2019-06-20T07:21:38.331Z,22.30
2019-06-20T07:22:38.325Z,22.27
2019-06-20T07:23:38.342Z,22.30
2019-06-20T07:24:38.306Z,22.33
2019-06-20T07:25:38.296Z,22.36
2019-06-20T07:26:38.280Z,22.29
2019-06-20T07:27:38.281Z,22.44
2019-06-20T07:28:38.267Z,22.46
2019-06-20T07:29:38.273Z,22.59
2019-06-20T07:30:38.246Z,22.45
2019-06-20T07:31:38.224Z,22.59
2019-06-20T07:32:38.215Z,22.57
2019-06-20T07:33:38.204Z,22.61
2019-06-20T07:34:38.219Z,22.52
2019-06-20T07:35:41.718Z,22.38
2019-06-20T07:36:38.177Z,22.15
2019-06-20T07:37:38.167Z,21.89
2019-06-20T07:38:38.158Z,21.85
2019-06-20T07:39:38.150Z,21.77
2019-06-20T07:40:38.161Z,21.61
2019-06-20T07:41:38.119Z,21.70
2019-06-20T07:42:38.109Z,21.71
2019-06-20T07:43:38.100Z,21.58
2019-06-20T07:44:38.088Z,21.58
2019-06-20T07:45:38.118Z,21.66
2019-06-20T07:46:38.680Z,21.66
2019-06-20T07:47:38.068Z,21.63
2019-06-20T07:48:38.045Z,21.67
2019-06-20T07:49:38.033Z,21.68
2019-06-20T07:50:39.448Z,21.71
2019-06-20T07:51:38.076Z,21.81
2019-06-20T07:52:38.010Z,21.74
2019-06-20T07:53:37.991Z,21.79
2019-06-20T07:54:37.983Z,21.83
2019-06-20T07:55:37.968Z,21.86
2019-06-20T07:56:37.975Z,21.83
2019-06-20T07:57:38.058Z,21.94
2019-06-20T07:58:37.979Z,21.91
2019-06-20T07:59:37.960Z,22.01
2019-06-20T08:00:37.923Z,22.08
2019-06-20T08:01:37.927Z,22.15
2019-06-20T08:02:37.894Z,22.19
2019-06-20T08:03:37.890Z,22.26
2019-06-20T08:04:37.884Z,22.41
2019-06-20T08:05:37.866Z,22.42
2019-06-20T08:06:37.852Z,22.41
2019-06-20T08:07:37.852Z,22.49
2019-06-20T08:08:37.837Z,22.48
2019-06-20T08:09:44.864Z,22.60
2019-06-20T08:10:38.815Z,22.69
2019-06-20T08:11:37.800Z,22.70
2019-06-20T08:12:37.803Z,22.61
2019-06-20T08:13:37.785Z,22.91
2019-06-20T08:14:37.765Z,22.96
2019-06-20T08:15:37.762Z,23.15
2019-06-20T08:16:37.747Z,23.23
2019-06-20T08:17:37.742Z,23.38
2019-06-20T08:18:37.739Z,23.72
2019-06-20T08:19:37.719Z,24.06
2019-06-20T08:20:37.709Z,24.63
2019-06-20T08:21:37.692Z,25.04
2019-06-20T08:22:37.684Z,26.23
2019-06-20T08:23:37.701Z,28.06
2019-06-20T08:24:37.715Z,28.54
2019-06-20T08:25:37.682Z,29.10
2019-06-20T08:26:37.779Z,28.67
2019-06-20T08:27:37.632Z,27.98
2019-06-20T08:28:37.657Z,27.16
2019-06-20T08:29:37.613Z,26.76
2019-06-20T08:30:37.597Z,26.21
2019-06-20T08:31:37.586Z,25.98
2019-06-20T08:32:37.584Z,25.63
2019-06-20T08:33:37.584Z,25.54
2019-06-20T08:34:37.575Z,25.53
2019-06-20T08:35:37.546Z,25.69
2019-06-20T08:36:37.530Z,26.00
2019-06-20T08:37:37.523Z,26.86
2019-06-20T08:38:37.755Z,28.88
2019-06-20T08:39:37.517Z,30.59
2019-06-20T08:40:37.487Z,32.17
2019-06-20T08:41:37.485Z,32.28
2019-06-20T08:42:37.501Z,31.82
2019-06-20T08:43:37.464Z,33.00
2019-06-20T08:44:37.465Z,33.82
2019-06-20T08:45:37.444Z,33.65
2019-06-20T08:46:37.448Z,32.27
2019-06-20T08:47:37.427Z,31.74
2019-06-20T08:48:37.427Z,31.78
2019-06-20T08:49:37.406Z,32.27
2019-06-20T08:50:37.415Z,31.07
2019-06-20T08:51:37.391Z,29.85
2019-06-20T08:52:37.377Z,29.37
2019-06-20T08:53:37.372Z,30.03
2019-06-20T08:54:37.373Z,29.89
2019-06-20T08:55:37.340Z,29.88
2019-06-20T08:56:37.329Z,29.71
2019-06-20T08:57:37.332Z,30.10
2019-06-20T08:58:37.321Z,31.13
2019-06-20T08:59:37.323Z,31.40
2019-06-20T09:00:37.333Z,30.37
2019-06-20T09:01:37.288Z,29.55
2019-06-20T09:02:37.274Z,29.14
2019-06-20T09:03:37.262Z,28.58
2019-06-20T09:04:37.275Z,28.40
2019-06-20T09:05:37.241Z,28.06
2019-06-20T09:06:37.242Z,28.09
2019-06-20T09:07:37.219Z,27.88
2019-06-20T09:08:37.221Z,27.52
2019-06-20T09:09:37.205Z,27.24
2019-06-20T09:10:37.234Z,26.91
2019-06-20T09:11:37.178Z,26.65
2019-06-20T09:12:37.165Z,26.29
2019-06-20T09:13:37.152Z,26.09
2019-06-20T09:14:37.159Z,25.96
2019-06-20T09:15:37.139Z,25.79
2019-06-20T09:16:37.135Z,25.56
2019-06-20T09:17:37.112Z,25.38
2019-06-20T09:18:37.101Z,25.24
2019-06-20T09:19:37.127Z,25.22
2019-06-20T09:20:37.081Z,25.19
2019-06-20T09:21:37.077Z,25.26
2019-06-20T09:22:37.073Z,25.38
2019-06-20T09:23:37.056Z,25.48
2019-06-20T09:24:37.043Z,25.51
2019-06-20T09:25:37.059Z,25.67
2019-06-20T09:26:37.025Z,25.66
2019-06-20T09:27:37.051Z,25.83
2019-06-20T09:28:37.013Z,25.91
2019-06-20T09:29:41.768Z,26.04
2019-06-20T09:30:37.999Z,25.97
2019-06-20T09:31:36.973Z,25.90
2019-06-20T09:32:36.961Z,25.82
2019-06-20T09:33:36.963Z,25.91
2019-06-20T09:34:36.941Z,25.90
2019-06-20T09:35:36.949Z,25.83
2019-06-20T09:36:36.921Z,25.82
2019-06-20T09:37:36.907Z,25.69
2019-06-20T09:38:36.918Z,25.56
2019-06-20T09:39:36.888Z,25.44
2019-06-20T09:40:36.898Z,25.51
2019-06-20T09:41:36.874Z,25.67
2019-06-20T09:42:37.011Z,25.64
2019-06-20T09:43:36.847Z,25.90
2019-06-20T09:44:36.844Z,25.93
2019-06-20T09:45:36.846Z,25.97
2019-06-20T09:46:36.811Z,26.06
2019-06-20T09:47:36.801Z,26.09
2019-06-20T09:48:36.789Z,26.29
2019-06-20T09:49:36.783Z,26.41
2019-06-20T09:50:36.770Z,26.61
2019-06-20T09:51:36.785Z,26.93
2019-06-20T09:52:36.750Z,27.53
2019-06-20T09:53:36.734Z,27.72
2019-06-20T09:54:36.729Z,27.50
2019-06-20T09:55:36.721Z,27.50
2019-06-20T09:56:36.706Z,27.35
2019-06-20T09:57:36.707Z,27.31
2019-06-20T09:58:36.685Z,27.20
2019-06-20T09:59:36.672Z,27.43
2019-06-20T10:00:36.668Z,27.69
2019-06-20T10:01:36.657Z,28.55
2019-06-20T10:02:36.655Z,28.38
2019-06-20T10:03:36.638Z,28.02
2019-06-20T10:04:36.844Z,27.39
2019-06-20T10:05:36.613Z,26.93
2019-06-20T10:06:36.605Z,26.96
2019-06-20T10:07:36.615Z,28.02
2019-06-20T10:08:36.601Z,28.98
2019-06-20T10:09:36.571Z,29.12
2019-06-20T10:10:36.554Z,29.20
2019-06-20T10:11:36.546Z,29.08
2019-06-20T10:12:36.573Z,29.33
2019-06-20T10:13:36.562Z,29.51
2019-06-20T10:14:36.522Z,29.71
2019-06-20T10:15:36.504Z,29.71
2019-06-20T10:16:45.327Z,29.94
2019-06-20T10:17:37.495Z,30.45
2019-06-20T10:18:36.486Z,29.91
2019-06-20T10:19:36.485Z,29.32
2019-06-20T10:20:38.857Z,29.25
2019-06-20T10:21:36.453Z,29.99
2019-06-20T10:22:36.445Z,30.94
2019-06-20T10:23:36.448Z,31.57
2019-06-20T10:24:36.427Z,32.28
2019-06-20T10:25:36.428Z,33.05
2019-06-20T10:26:37.723Z,33.84
2019-06-20T10:27:36.399Z,34.28
2019-06-20T10:28:36.395Z,34.67
2019-06-20T10:29:36.378Z,35.12
2019-06-20T10:30:36.379Z,35.69
2019-06-20T10:31:36.369Z,36.27
2019-06-20T10:32:36.355Z,36.97
2019-06-20T10:33:36.383Z,37.24
2019-06-20T10:34:36.349Z,36.22
2019-06-20T10:35:36.324Z,35.13
2019-06-20T10:36:36.351Z,34.36
2019-06-20T10:37:36.305Z,33.84
2019-06-20T10:38:37.241Z,33.82
2019-06-20T10:39:36.289Z,33.34
2019-06-20T10:40:36.278Z,32.81
2019-06-20T10:41:36.271Z,32.71
2019-06-20T10:42:36.268Z,32.85
2019-06-20T10:43:36.243Z,32.51
2019-06-20T10:44:36.238Z,31.90
2019-06-20T10:45:36.249Z,31.40
2019-06-20T10:46:36.220Z,30.93
2019-06-20T10:47:36.273Z,30.78
2019-06-20T10:48:36.201Z,30.36
2019-06-20T10:49:36.194Z,30.29
2019-06-20T10:50:36.183Z,30.19
2019-06-20T10:51:36.175Z,30.07
2019-06-20T10:52:36.183Z,30.03
2019-06-20T10:53:36.148Z,30.07
2019-06-20T10:54:36.136Z,30.00
2019-06-20T10:55:36.127Z,29.94
2019-06-20T10:56:36.122Z,29.74
2019-06-20T10:57:36.141Z,29.81
2019-06-20T10:58:36.179Z,29.79
2019-06-20T10:59:36.096Z,29.89
2019-06-20T11:00:36.078Z,29.97
2019-06-20T11:01:36.073Z,29.95
2019-06-20T11:02:36.065Z,29.95
2019-06-20T11:03:36.067Z,30.28
2019-06-20T11:04:36.039Z,30.85
2019-06-20T11:05:36.030Z,31.69
2019-06-20T11:06:36.019Z,32.56
2019-06-20T11:07:36.026Z,33.33
2019-06-20T11:08:36.030Z,33.35
2019-06-20T11:09:36.007Z,33.38
2019-06-20T11:10:35.985Z,32.87
2019-06-20T11:11:35.978Z,32.59
2019-06-20T11:12:45.631Z,32.85
2019-06-20T11:13:38.954Z,33.37
2019-06-20T11:14:35.945Z,34.42
2019-06-20T11:15:35.939Z,34.36
2019-06-20T11:16:36.038Z,34.38
2019-06-20T11:17:35.920Z,34.76
2019-06-20T11:18:37.359Z,34.78
2019-06-20T11:19:38.146Z,34.80
2019-06-20T11:20:35.890Z,34.16
2019-06-20T11:21:37.895Z,34.30
2019-06-20T11:22:37.858Z,34.53
2019-06-20T11:23:36.485Z,34.90
2019-06-20T11:24:37.492Z,35.27
2019-06-20T11:25:36.988Z,35.25
2019-06-20T11:26:37.798Z,35.20
2019-06-20T11:27:37.118Z,35.55
2019-06-20T11:28:37.637Z,36.21
2019-06-20T11:29:36.854Z,36.72
2019-06-20T11:30:46.711Z,36.86
2019-06-20T11:31:37.639Z,37.39
2019-06-20T11:32:36.607Z,37.87
2019-06-20T11:33:38.239Z,38.21
2019-06-20T11:34:37.701Z,38.26
2019-06-20T11:35:37.429Z,37.21
2019-06-20T11:36:37.108Z,36.83
2019-06-20T11:37:36.463Z,36.56
2019-06-20T11:38:35.740Z,36.55
2019-06-20T11:39:37.312Z,36.53
2019-06-20T11:40:36.921Z,35.89
2019-06-20T11:41:36.747Z,35.92
2019-06-20T11:42:36.114Z,35.58
2019-06-20T11:43:36.277Z,35.06
2019-06-20T11:44:37.011Z,35.09
2019-06-20T11:45:37.213Z,35.47
2019-06-20T11:46:36.981Z,35.69
2019-06-20T11:47:36.635Z,35.85
2019-06-20T11:48:36.761Z,36.15
2019-06-20T11:49:36.424Z,35.28
2019-06-20T11:50:36.283Z,33.77
2019-06-20T11:51:35.953Z,33.72
2019-06-20T11:52:40.256Z,33.74
2019-06-20T11:53:36.673Z,33.87
2019-06-20T11:54:36.016Z,32.98
2019-06-20T11:55:35.620Z,32.12
2019-06-20T11:56:35.586Z,31.65
2019-06-20T11:57:35.598Z,31.57
2019-06-20T11:58:35.567Z,31.67
2019-06-20T11:59:35.569Z,31.15
2019-06-20T12:00:35.549Z,30.79
2019-06-20T12:01:35.569Z,31.10
2019-06-20T12:02:35.557Z,31.65
2019-06-20T12:03:35.534Z,32.14
2019-06-20T12:04:35.531Z,32.47
2019-06-20T12:05:35.531Z,32.40
2019-06-20T12:06:35.538Z,31.79
2019-06-20T12:07:35.510Z,31.34
2019-06-20T12:08:35.492Z,31.13
2019-06-20T12:09:36.565Z,30.94
2019-06-20T12:10:35.517Z,30.75
2019-06-20T12:11:35.498Z,30.54
2019-06-20T12:12:35.463Z,30.51
2019-06-20T12:13:35.441Z,30.46
2019-06-20T12:14:35.426Z,30.72
2019-06-20T12:15:35.427Z,31.42
2019-06-20T12:16:35.411Z,32.28
2019-06-20T12:17:35.412Z,33.24
2019-06-20T12:18:35.382Z,34.30
2019-06-20T12:19:35.382Z,34.87
2019-06-20T12:20:35.379Z,35.28
2019-06-20T12:21:35.373Z,35.42
2019-06-20T12:22:35.377Z,35.83
2019-06-20T12:23:35.449Z,35.47
2019-06-20T12:24:35.341Z,35.55
2019-06-20T12:25:35.337Z,35.66
2019-06-20T12:26:35.334Z,35.02
2019-06-20T12:27:35.313Z,35.44
2019-06-20T12:28:35.316Z,35.73
2019-06-20T12:29:35.293Z,35.92
2019-06-20T12:30:35.289Z,36.40
2019-06-20T12:31:35.280Z,36.68
2019-06-20T12:32:35.274Z,36.57
2019-06-20T12:33:35.276Z,36.60
2019-06-20T12:34:35.269Z,36.96
2019-06-20T12:35:35.247Z,36.57
2019-06-20T12:36:35.237Z,35.78
2019-06-20T12:37:35.234Z,35.80
2019-06-20T12:38:35.237Z,35.68
2019-06-20T12:39:35.216Z,35.55
2019-06-20T12:40:35.200Z,35.52
2019-06-20T12:41:35.200Z,35.21
2019-06-20T12:42:35.182Z,35.12
2019-06-20T12:43:35.189Z,35.15
2019-06-20T12:44:35.167Z,35.12
2019-06-20T12:45:35.167Z,34.98
2019-06-20T12:46:35.158Z,34.72
2019-06-20T12:47:35.267Z,34.50
2019-06-20T12:48:35.157Z,34.56
2019-06-20T12:49:35.138Z,34.58
2019-06-20T12:50:35.121Z,34.99
2019-06-20T12:51:35.099Z,35.03
2019-06-20T12:52:35.099Z,35.29